sensor_id;sensor_type;location;lat;lon;timestamp;temperature;humidity
23156;DHT22;11746;50.876;4.246;2023-03-05T00:00:52;5.90;99.90
23156;DHT22;11746;50.876;4.246;2023-03-05T00:03:18;5.90;99.90
23156;DHT22;11746;50.876;4.246;2023-03-05T00:05:48;5.90;99.90
23156;DHT22;11746;50.876;4.246;2023-03-05T00:08:14;5.90;99.90
23156;DHT22;11746;50.876;4.246;2023-03-05T00:10:42;5.80;99.90
23156;DHT22;11746;50.876;4.246;2023-03-05T00:13:10;5.80;99.90
23156;DHT22;11746;50.876;4.246;2023-03-05T00:15:40;5.80;99.90
23156;DHT22;11746;50.876;4.246;2023-03-05T00:18:08;5.80;99.90
23156;DHT22;11746;50.876;4.246;2023-03-05T00:20:34;5.80;99.90
23156;DHT22;11746;50.876;4.246;2023-03-05T00:23:00;5.80;99.90
23156;DHT22;11746;50.876;4.246;2023-03-05T00:25:26;5.80;99.90
23156;DHT22;11746;50.876;4.246;2023-03-05T00:27:52;5.80;99.90
23156;DHT22;11746;50.876;4.246;2023-03-05T00:30:17;5.70;99.90
23156;DHT22;11746;50.876;4.246;2023-03-05T00:32:43;5.80;99.90
23156;DHT22;11746;50.876;4.246;2023-03-05T00:35:09;5.70;99.90
23156;DHT22;11746;50.876;4.246;2023-03-05T00:37:35;5.70;99.90
23156;DHT22;11746;50.876;4.246;2023-03-05T00:40:01;5.70;99.90
23156;DHT22;11746;50.876;4.246;2023-03-05T00:42:28;5.80;99.90
23156;DHT22;11746;50.876;4.246;2023-03-05T00:44:54;5.80;99.90
23156;DHT22;11746;50.876;4.246;2023-03-05T00:47:20;5.80;99.90
23156;DHT22;11746;50.876;4.246;2023-03-05T00:49:45;5.80;99.90
23156;DHT22;11746;50.876;4.246;2023-03-05T00:52:13;5.70;99.90
23156;DHT22;11746;50.876;4.246;2023-03-05T00:54:39;5.70;99.90
23156;DHT22;11746;50.876;4.246;2023-03-05T00:57:04;5.60;99.90
23156;DHT22;11746;50.876;4.246;2023-03-05T00:59:32;5.50;99.90
23156;DHT22;11746;50.876;4.246;2023-03-05T01:01:58;5.50;99.90
23156;DHT22;11746;50.876;4.246;2023-03-05T01:04:28;5.50;99.90
23156;DHT22;11746;50.876;4.246;2023-03-05T01:06:54;5.40;99.90
23156;DHT22;11746;50.876;4.246;2023-03-05T01:09:20;5.30;99.90
23156;DHT22;11746;50.876;4.246;2023-03-05T01:11:46;5.30;99.90
23156;DHT22;11746;50.876;4.246;2023-03-05T01:14:12;5.30;99.90
23156;DHT22;11746;50.876;4.246;2023-03-05T01:16:38;5.20;99.90
23156;DHT22;11746;50.876;4.246;2023-03-05T01:19:03;5.40;99.90
23156;DHT22;11746;50.876;4.246;2023-03-05T01:21:29;5.40;99.90
23156;DHT22;11746;50.876;4.246;2023-03-05T01:23:55;5.40;99.90
23156;DHT22;11746;50.876;4.246;2023-03-05T01:26:20;5.50;99.90
23156;DHT22;11746;50.876;4.246;2023-03-05T01:28:46;5.50;99.90
23156;DHT22;11746;50.876;4.246;2023-03-05T01:31:14;5.50;99.90
23156;DHT22;11746;50.876;4.246;2023-03-05T01:33:40;5.40;99.90
23156;DHT22;11746;50.876;4.246;2023-03-05T01:36:12;5.40;99.90
23156;DHT22;11746;50.876;4.246;2023-03-05T01:38:44;5.50;99.90
23156;DHT22;11746;50.876;4.246;2023-03-05T01:41:12;5.40;99.90
23156;DHT22;11746;50.876;4.246;2023-03-05T01:43:44;5.40;99.90
23156;DHT22;11746;50.876;4.246;2023-03-05T01:46:34;5.50;99.90
23156;DHT22;11746;50.876;4.246;2023-03-05T01:49:25;5.40;99.90
23156;DHT22;11746;50.876;4.246;2023-03-05T01:52:11;5.40;99.90
23156;DHT22;11746;50.876;4.246;2023-03-05T01:54:46;5.30;99.90
23156;DHT22;11746;50.876;4.246;2023-03-05T01:57:15;5.40;99.90
23156;DHT22;11746;50.876;4.246;2023-03-05T01:59:44;5.50;99.90
23156;DHT22;11746;50.876;4.246;2023-03-05T02:02:11;5.50;99.90
23156;DHT22;11746;50.876;4.246;2023-03-05T02:04:43;5.50;99.90
23156;DHT22;11746;50.876;4.246;2023-03-05T02:07:16;5.40;99.90
23156;DHT22;11746;50.876;4.246;2023-03-05T02:09:42;5.30;99.90
23156;DHT22;11746;50.876;4.246;2023-03-05T02:12:09;5.30;99.90
23156;DHT22;11746;50.876;4.246;2023-03-05T02:14:41;5.20;99.90
23156;DHT22;11746;50.876;4.246;2023-03-05T02:17:08;5.30;99.90
23156;DHT22;11746;50.876;4.246;2023-03-05T02:22:17;5.30;99.90
23156;DHT22;11746;50.876;4.246;2023-03-05T02:24:43;5.30;99.90
23156;DHT22;11746;50.876;4.246;2023-03-05T02:27:09;5.20;99.90
23156;DHT22;11746;50.876;4.246;2023-03-05T02:29:38;5.30;99.90
23156;DHT22;11746;50.876;4.246;2023-03-05T02:32:05;5.20;99.90
23156;DHT22;11746;50.876;4.246;2023-03-05T02:34:34;5.10;99.90
23156;DHT22;11746;50.876;4.246;2023-03-05T02:37:00;5.00;99.90
23156;DHT22;11746;50.876;4.246;2023-03-05T02:39:31;5.00;99.90
23156;DHT22;11746;50.876;4.246;2023-03-05T02:41:59;5.00;99.90
23156;DHT22;11746;50.876;4.246;2023-03-05T02:44:30;5.00;99.90
23156;DHT22;11746;50.876;4.246;2023-03-05T02:46:56;4.90;99.90
23156;DHT22;11746;50.876;4.246;2023-03-05T02:49:21;4.90;99.90
23156;DHT22;11746;50.876;4.246;2023-03-05T02:51:47;4.90;99.90
23156;DHT22;11746;50.876;4.246;2023-03-05T02:54:12;4.80;99.90
23156;DHT22;11746;50.876;4.246;2023-03-05T02:56:38;4.80;99.90
23156;DHT22;11746;50.876;4.246;2023-03-05T02:59:07;4.90;99.90
23156;DHT22;11746;50.876;4.246;2023-03-05T03:01:36;4.80;99.90
23156;DHT22;11746;50.876;4.246;2023-03-05T03:04:01;4.90;99.90
23156;DHT22;11746;50.876;4.246;2023-03-05T03:06:27;4.80;99.90
23156;DHT22;11746;50.876;4.246;2023-03-05T03:08:56;4.90;99.90
23156;DHT22;11746;50.876;4.246;2023-03-05T03:11:26;4.90;99.90
23156;DHT22;11746;50.876;4.246;2023-03-05T03:13:52;4.90;99.90
23156;DHT22;11746;50.876;4.246;2023-03-05T03:16:17;5.00;99.90
23156;DHT22;11746;50.876;4.246;2023-03-05T03:18:43;4.90;99.90
23156;DHT22;11746;50.876;4.246;2023-03-05T03:21:23;5.00;99.90
23156;DHT22;11746;50.876;4.246;2023-03-05T03:23:49;5.10;99.90
23156;DHT22;11746;50.876;4.246;2023-03-05T03:26:15;5.20;99.90
23156;DHT22;11746;50.876;4.246;2023-03-05T03:28:41;5.20;99.90
23156;DHT22;11746;50.876;4.246;2023-03-05T03:31:07;5.10;99.90
23156;DHT22;11746;50.876;4.246;2023-03-05T03:33:33;5.10;99.90
23156;DHT22;11746;50.876;4.246;2023-03-05T03:35:59;5.20;99.90
23156;DHT22;11746;50.876;4.246;2023-03-05T03:38:27;5.20;99.90
23156;DHT22;11746;50.876;4.246;2023-03-05T03:40:53;5.30;99.90
23156;DHT22;11746;50.876;4.246;2023-03-05T03:43:19;5.50;99.90
23156;DHT22;11746;50.876;4.246;2023-03-05T03:45:44;5.60;99.90
23156;DHT22;11746;50.876;4.246;2023-03-05T03:48:10;5.50;99.90
23156;DHT22;11746;50.876;4.246;2023-03-05T03:50:40;5.30;99.90
23156;DHT22;11746;50.876;4.246;2023-03-05T03:53:07;5.30;99.90
23156;DHT22;11746;50.876;4.246;2023-03-05T03:55:41;5.40;99.90
23156;DHT22;11746;50.876;4.246;2023-03-05T03:58:07;5.30;99.90
23156;DHT22;11746;50.876;4.246;2023-03-05T04:00:33;5.10;99.90
23156;DHT22;11746;50.876;4.246;2023-03-05T04:02:59;5.00;99.90
23156;DHT22;11746;50.876;4.246;2023-03-05T04:05:24;4.90;99.90
23156;DHT22;11746;50.876;4.246;2023-03-05T04:07:50;4.90;99.90
23156;DHT22;11746;50.876;4.246;2023-03-05T04:10:16;4.90;99.90
23156;DHT22;11746;50.876;4.246;2023-03-05T04:12:44;4.80;99.90
23156;DHT22;11746;50.876;4.246;2023-03-05T04:15:11;4.70;99.90
23156;DHT22;11746;50.876;4.246;2023-03-05T04:17:37;4.70;99.90
23156;DHT22;11746;50.876;4.246;2023-03-05T04:20:04;4.60;99.90
23156;DHT22;11746;50.876;4.246;2023-03-05T04:22:30;4.70;99.90
23156;DHT22;11746;50.876;4.246;2023-03-05T04:24:55;4.60;99.90
23156;DHT22;11746;50.876;4.246;2023-03-05T04:27:21;4.80;99.90
23156;DHT22;11746;50.876;4.246;2023-03-05T04:29:47;4.80;99.90
23156;DHT22;11746;50.876;4.246;2023-03-05T04:32:15;4.70;99.90
23156;DHT22;11746;50.876;4.246;2023-03-05T04:34:47;4.70;99.90
23156;DHT22;11746;50.876;4.246;2023-03-05T04:37:13;4.70;99.90
23156;DHT22;11746;50.876;4.246;2023-03-05T04:39:41;4.70;99.90
23156;DHT22;11746;50.876;4.246;2023-03-05T04:42:08;5.00;99.90
23156;DHT22;11746;50.876;4.246;2023-03-05T04:44:37;4.80;99.90
23156;DHT22;11746;50.876;4.246;2023-03-05T04:47:03;4.80;99.90
23156;DHT22;11746;50.876;4.246;2023-03-05T04:49:29;4.70;99.90
23156;DHT22;11746;50.876;4.246;2023-03-05T04:51:54;4.60;99.90
23156;DHT22;11746;50.876;4.246;2023-03-05T04:54:22;4.50;99.90
23156;DHT22;11746;50.876;4.246;2023-03-05T04:56:50;4.50;99.90
23156;DHT22;11746;50.876;4.246;2023-03-05T04:59:15;4.50;99.90
23156;DHT22;11746;50.876;4.246;2023-03-05T05:01:41;4.60;99.90
23156;DHT22;11746;50.876;4.246;2023-03-05T05:04:08;4.60;99.90
23156;DHT22;11746;50.876;4.246;2023-03-05T05:06:35;4.60;99.90
23156;DHT22;11746;50.876;4.246;2023-03-05T05:09:01;4.70;99.90
23156;DHT22;11746;50.876;4.246;2023-03-05T05:11:29;4.80;99.90
23156;DHT22;11746;50.876;4.246;2023-03-05T05:13:57;4.60;99.90
23156;DHT22;11746;50.876;4.246;2023-03-05T05:16:25;4.60;99.90
23156;DHT22;11746;50.876;4.246;2023-03-05T05:18:51;4.70;99.90
23156;DHT22;11746;50.876;4.246;2023-03-05T05:21:19;4.80;99.90
23156;DHT22;11746;50.876;4.246;2023-03-05T05:23:45;4.90;99.90
23156;DHT22;11746;50.876;4.246;2023-03-05T05:26:11;4.70;99.90
23156;DHT22;11746;50.876;4.246;2023-03-05T05:28:41;4.70;99.90
23156;DHT22;11746;50.876;4.246;2023-03-05T05:31:13;4.60;99.90
23156;DHT22;11746;50.876;4.246;2023-03-05T05:33:39;4.60;99.90
23156;DHT22;11746;50.876;4.246;2023-03-05T05:36:10;4.50;99.90
23156;DHT22;11746;50.876;4.246;2023-03-05T05:38:38;4.60;99.90
23156;DHT22;11746;50.876;4.246;2023-03-05T05:41:09;4.80;99.90
23156;DHT22;11746;50.876;4.246;2023-03-05T05:43:36;4.70;99.90
23156;DHT22;11746;50.876;4.246;2023-03-05T05:46:05;4.70;99.90
23156;DHT22;11746;50.876;4.246;2023-03-05T05:48:33;4.70;99.90
23156;DHT22;11746;50.876;4.246;2023-03-05T05:50:59;4.70;99.90
23156;DHT22;11746;50.876;4.246;2023-03-05T05:53:31;4.80;99.90
23156;DHT22;11746;50.876;4.246;2023-03-05T05:55:57;4.80;99.90
23156;DHT22;11746;50.876;4.246;2023-03-05T05:58:22;4.90;99.90
23156;DHT22;11746;50.876;4.246;2023-03-05T06:00:48;4.80;99.90
23156;DHT22;11746;50.876;4.246;2023-03-05T06:03:17;4.80;99.90
23156;DHT22;11746;50.876;4.246;2023-03-05T06:05:43;4.80;99.90
23156;DHT22;11746;50.876;4.246;2023-03-05T06:08:11;4.70;99.90
23156;DHT22;11746;50.876;4.246;2023-03-05T06:10:37;4.60;99.90
23156;DHT22;11746;50.876;4.246;2023-03-05T06:13:03;4.60;99.90
23156;DHT22;11746;50.876;4.246;2023-03-05T06:15:29;4.60;99.90
23156;DHT22;11746;50.876;4.246;2023-03-05T06:17:54;4.50;99.90
23156;DHT22;11746;50.876;4.246;2023-03-05T06:20:25;4.60;99.90
23156;DHT22;11746;50.876;4.246;2023-03-05T06:22:53;4.60;99.90
23156;DHT22;11746;50.876;4.246;2023-03-05T06:25:18;4.50;99.90
23156;DHT22;11746;50.876;4.246;2023-03-05T06:27:44;4.70;99.90
23156;DHT22;11746;50.876;4.246;2023-03-05T06:30:10;4.60;99.90
23156;DHT22;11746;50.876;4.246;2023-03-05T06:32:39;4.50;99.90
23156;DHT22;11746;50.876;4.246;2023-03-05T06:35:05;4.50;99.90
23156;DHT22;11746;50.876;4.246;2023-03-05T06:37:30;4.50;99.90
23156;DHT22;11746;50.876;4.246;2023-03-05T06:39:58;4.50;99.90
23156;DHT22;11746;50.876;4.246;2023-03-05T06:42:24;4.50;99.90
23156;DHT22;11746;50.876;4.246;2023-03-05T06:44:52;4.60;99.90
23156;DHT22;11746;50.876;4.246;2023-03-05T06:47:19;4.60;99.90
23156;DHT22;11746;50.876;4.246;2023-03-05T06:49:48;4.60;99.90
23156;DHT22;11746;50.876;4.246;2023-03-05T06:52:14;4.60;99.90
23156;DHT22;11746;50.876;4.246;2023-03-05T06:54:39;4.80;99.90
23156;DHT22;11746;50.876;4.246;2023-03-05T06:57:05;4.80;99.90
23156;DHT22;11746;50.876;4.246;2023-03-05T06:59:30;4.70;99.90
23156;DHT22;11746;50.876;4.246;2023-03-05T07:01:56;4.90;99.90
23156;DHT22;11746;50.876;4.246;2023-03-05T07:04:22;4.90;99.90
23156;DHT22;11746;50.876;4.246;2023-03-05T07:06:48;4.70;99.90
23156;DHT22;11746;50.876;4.246;2023-03-05T07:09:15;4.60;99.90
23156;DHT22;11746;50.876;4.246;2023-03-05T07:11:41;4.70;99.90
23156;DHT22;11746;50.876;4.246;2023-03-05T07:14:07;4.70;99.90
23156;DHT22;11746;50.876;4.246;2023-03-05T07:16:33;4.70;99.90
23156;DHT22;11746;50.876;4.246;2023-03-05T07:19:01;4.70;99.90
23156;DHT22;11746;50.876;4.246;2023-03-05T07:21:32;4.60;99.90
23156;DHT22;11746;50.876;4.246;2023-03-05T07:24:01;4.50;99.90
23156;DHT22;11746;50.876;4.246;2023-03-05T07:26:33;4.60;99.90
23156;DHT22;11746;50.876;4.246;2023-03-05T07:29:02;4.60;99.90
23156;DHT22;11746;50.876;4.246;2023-03-05T07:31:28;4.60;99.90
23156;DHT22;11746;50.876;4.246;2023-03-05T07:33:58;4.70;99.90
23156;DHT22;11746;50.876;4.246;2023-03-05T07:36:25;4.90;99.90
23156;DHT22;11746;50.876;4.246;2023-03-05T07:38:50;4.80;99.90
23156;DHT22;11746;50.876;4.246;2023-03-05T07:41:21;4.90;99.90
23156;DHT22;11746;50.876;4.246;2023-03-05T07:43:50;4.80;99.90
23156;DHT22;11746;50.876;4.246;2023-03-05T07:46:17;4.90;99.90
23156;DHT22;11746;50.876;4.246;2023-03-05T07:48:43;4.90;99.90
23156;DHT22;11746;50.876;4.246;2023-03-05T07:51:15;4.90;99.90
23156;DHT22;11746;50.876;4.246;2023-03-05T07:53:42;4.90;99.90
23156;DHT22;11746;50.876;4.246;2023-03-05T07:56:08;4.90;99.90
23156;DHT22;11746;50.876;4.246;2023-03-05T07:58:35;5.00;99.90
23156;DHT22;11746;50.876;4.246;2023-03-05T08:01:01;5.00;99.90
23156;DHT22;11746;50.876;4.246;2023-03-05T08:03:26;5.10;99.90
23156;DHT22;11746;50.876;4.246;2023-03-05T08:05:52;5.20;99.90
23156;DHT22;11746;50.876;4.246;2023-03-05T08:08:17;5.10;99.90
23156;DHT22;11746;50.876;4.246;2023-03-05T08:10:43;5.10;99.90
23156;DHT22;11746;50.876;4.246;2023-03-05T08:13:11;5.10;99.90
23156;DHT22;11746;50.876;4.246;2023-03-05T08:15:42;5.00;99.90
23156;DHT22;11746;50.876;4.246;2023-03-05T08:18:07;5.00;99.90
23156;DHT22;11746;50.876;4.246;2023-03-05T08:20:36;5.00;99.90
23156;DHT22;11746;50.876;4.246;2023-03-05T08:23:02;4.90;99.90
23156;DHT22;11746;50.876;4.246;2023-03-05T08:25:28;5.00;99.90
23156;DHT22;11746;50.876;4.246;2023-03-05T08:27:53;5.10;99.90
23156;DHT22;11746;50.876;4.246;2023-03-05T08:30:22;5.20;99.90
23156;DHT22;11746;50.876;4.246;2023-03-05T08:32:51;5.30;99.90
23156;DHT22;11746;50.876;4.246;2023-03-05T08:35:17;5.20;99.90
23156;DHT22;11746;50.876;4.246;2023-03-05T08:37:43;5.40;99.90
23156;DHT22;11746;50.876;4.246;2023-03-05T08:40:09;5.40;99.90
23156;DHT22;11746;50.876;4.246;2023-03-05T08:42:35;5.40;99.90
23156;DHT22;11746;50.876;4.246;2023-03-05T08:45:00;5.30;99.90
23156;DHT22;11746;50.876;4.246;2023-03-05T08:47:29;5.30;99.90
23156;DHT22;11746;50.876;4.246;2023-03-05T08:49:57;5.20;99.90
23156;DHT22;11746;50.876;4.246;2023-03-05T08:52:23;5.30;99.90
23156;DHT22;11746;50.876;4.246;2023-03-05T08:54:52;5.30;99.90
23156;DHT22;11746;50.876;4.246;2023-03-05T08:57:20;5.40;99.90
23156;DHT22;11746;50.876;4.246;2023-03-05T08:59:45;5.40;99.90
23156;DHT22;11746;50.876;4.246;2023-03-05T09:02:12;5.30;99.90
23156;DHT22;11746;50.876;4.246;2023-03-05T09:04:37;5.30;99.90
23156;DHT22;11746;50.876;4.246;2023-03-05T09:07:06;5.30;99.90
23156;DHT22;11746;50.876;4.246;2023-03-05T09:09:34;5.40;99.90
23156;DHT22;11746;50.876;4.246;2023-03-05T09:12:01;5.40;99.90
23156;DHT22;11746;50.876;4.246;2023-03-05T09:14:27;5.40;99.90
23156;DHT22;11746;50.876;4.246;2023-03-05T09:16:54;5.50;99.90
23156;DHT22;11746;50.876;4.246;2023-03-05T09:19:19;5.60;99.90
23156;DHT22;11746;50.876;4.246;2023-03-05T09:21:45;5.60;99.90
23156;DHT22;11746;50.876;4.246;2023-03-05T09:24:15;5.60;99.90
23156;DHT22;11746;50.876;4.246;2023-03-05T09:26:41;5.70;99.90
23156;DHT22;11746;50.876;4.246;2023-03-05T09:29:08;5.70;99.90
23156;DHT22;11746;50.876;4.246;2023-03-05T09:31:35;5.60;99.90
23156;DHT22;11746;50.876;4.246;2023-03-05T09:34:01;5.50;99.90
23156;DHT22;11746;50.876;4.246;2023-03-05T09:36:28;5.50;99.90
23156;DHT22;11746;50.876;4.246;2023-03-05T09:38:54;5.50;99.90
23156;DHT22;11746;50.876;4.246;2023-03-05T09:54:57;5.50;99.90
23156;DHT22;11746;50.876;4.246;2023-03-05T09:57:35;5.60;99.90
23156;DHT22;11746;50.876;4.246;2023-03-05T10:00:16;5.60;99.90
23156;DHT22;11746;50.876;4.246;2023-03-05T10:02:50;5.40;99.90
23156;DHT22;11746;50.876;4.246;2023-03-05T10:05:26;5.40;99.90
23156;DHT22;11746;50.876;4.246;2023-03-05T10:07:59;5.30;99.90
23156;DHT22;11746;50.876;4.246;2023-03-05T10:10:40;5.20;99.90
23156;DHT22;11746;50.876;4.246;2023-03-05T10:13:15;5.30;99.90
23156;DHT22;11746;50.876;4.246;2023-03-05T10:21:27;5.20;99.90
23156;DHT22;11746;50.876;4.246;2023-03-05T10:24:29;5.10;99.90
23156;DHT22;11746;50.876;4.246;2023-03-05T10:27:04;5.20;99.90
23156;DHT22;11746;50.876;4.246;2023-03-05T10:29:38;5.20;99.90
23156;DHT22;11746;50.876;4.246;2023-03-05T10:32:20;5.00;99.90
23156;DHT22;11746;50.876;4.246;2023-03-05T10:38:06;5.10;99.90
23156;DHT22;11746;50.876;4.246;2023-03-05T10:40:45;5.30;99.90
23156;DHT22;11746;50.876;4.246;2023-03-05T10:45:56;5.20;99.90
23156;DHT22;11746;50.876;4.246;2023-03-05T10:51:14;5.20;99.90
23156;DHT22;11746;50.876;4.246;2023-03-05T10:53:58;5.20;99.90
23156;DHT22;11746;50.876;4.246;2023-03-05T10:56:27;5.20;99.90
23156;DHT22;11746;50.876;4.246;2023-03-05T10:58:54;5.40;99.90
23156;DHT22;11746;50.876;4.246;2023-03-05T11:01:23;5.40;99.90
23156;DHT22;11746;50.876;4.246;2023-03-05T11:06:41;5.40;99.90
23156;DHT22;11746;50.876;4.246;2023-03-05T11:14:34;5.70;99.90
23156;DHT22;11746;50.876;4.246;2023-03-05T11:17:30;5.90;99.90
23156;DHT22;11746;50.876;4.246;2023-03-05T11:19:57;6.00;99.90
23156;DHT22;11746;50.876;4.246;2023-03-05T11:22:49;6.10;99.90
23156;DHT22;11746;50.876;4.246;2023-03-05T11:25:28;6.20;99.90
23156;DHT22;11746;50.876;4.246;2023-03-05T11:27:55;6.20;99.90
23156;DHT22;11746;50.876;4.246;2023-03-05T11:30:39;6.20;99.90
23156;DHT22;11746;50.876;4.246;2023-03-05T11:33:15;6.30;99.90
23156;DHT22;11746;50.876;4.246;2023-03-05T11:35:43;6.40;99.90
23156;DHT22;11746;50.876;4.246;2023-03-05T11:38:28;6.40;99.90
23156;DHT22;11746;50.876;4.246;2023-03-05T11:40:55;6.50;99.90
23156;DHT22;11746;50.876;4.246;2023-03-05T11:43:24;6.60;99.90
23156;DHT22;11746;50.876;4.246;2023-03-05T11:46:01;6.50;99.90
23156;DHT22;11746;50.876;4.246;2023-03-05T11:48:34;6.50;99.90
23156;DHT22;11746;50.876;4.246;2023-03-05T11:51:06;6.50;99.90
23156;DHT22;11746;50.876;4.246;2023-03-05T11:53:33;6.60;99.90
23156;DHT22;11746;50.876;4.246;2023-03-05T11:56:29;6.60;99.90
23156;DHT22;11746;50.876;4.246;2023-03-05T11:59:06;6.50;99.90
23156;DHT22;11746;50.876;4.246;2023-03-05T12:01:44;6.50;99.90
23156;DHT22;11746;50.876;4.246;2023-03-05T12:04:10;6.50;99.90
23156;DHT22;11746;50.876;4.246;2023-03-05T12:06:57;6.40;99.90
23156;DHT22;11746;50.876;4.246;2023-03-05T12:20:44;6.40;99.90
23156;DHT22;11746;50.876;4.246;2023-03-05T12:23:16;6.40;99.90
23156;DHT22;11746;50.876;4.246;2023-03-05T12:25:54;6.20;99.90
23156;DHT22;11746;50.876;4.246;2023-03-05T12:31:05;6.00;99.90
23156;DHT22;11746;50.876;4.246;2023-03-05T12:33:49;5.80;99.90
23156;DHT22;11746;50.876;4.246;2023-03-05T12:38:52;5.50;99.90
23156;DHT22;11746;50.876;4.246;2023-03-05T12:46:35;5.40;99.90
23156;DHT22;11746;50.876;4.246;2023-03-05T12:49:37;5.50;99.90
23156;DHT22;11746;50.876;4.246;2023-03-05T12:52:16;5.40;99.90
23156;DHT22;11746;50.876;4.246;2023-03-05T12:54:59;5.70;99.90
23156;DHT22;11746;50.876;4.246;2023-03-05T12:57:28;5.70;99.90
23156;DHT22;11746;50.876;4.246;2023-03-05T13:02:53;5.70;99.90
23156;DHT22;11746;50.876;4.246;2023-03-05T13:05:29;5.70;99.90
23156;DHT22;11746;50.876;4.246;2023-03-05T13:10:41;5.90;99.90
23156;DHT22;11746;50.876;4.246;2023-03-05T13:13:12;5.90;99.90
23156;DHT22;11746;50.876;4.246;2023-03-05T13:15:45;5.90;99.90
23156;DHT22;11746;50.876;4.246;2023-03-05T13:18:18;5.80;99.90
23156;DHT22;11746;50.876;4.246;2023-03-05T13:20:45;5.50;99.90
23156;DHT22;11746;50.876;4.246;2023-03-05T13:23:26;5.40;99.90
23156;DHT22;11746;50.876;4.246;2023-03-05T13:26:01;5.20;99.90
23156;DHT22;11746;50.876;4.246;2023-03-05T13:28:27;5.00;99.90
23156;DHT22;11746;50.876;4.246;2023-03-05T13:30:59;4.80;99.90
23156;DHT22;11746;50.876;4.246;2023-03-05T13:33:32;4.80;99.90
23156;DHT22;11746;50.876;4.246;2023-03-05T13:35:58;4.80;99.90
23156;DHT22;11746;50.876;4.246;2023-03-05T13:38:32;4.90;99.90
23156;DHT22;11746;50.876;4.246;2023-03-05T13:41:21;4.80;99.90
23156;DHT22;11746;50.876;4.246;2023-03-05T13:43:57;4.90;99.90
23156;DHT22;11746;50.876;4.246;2023-03-05T13:46:33;4.90;99.90
23156;DHT22;11746;50.876;4.246;2023-03-05T13:49:24;4.90;99.90
23156;DHT22;11746;50.876;4.246;2023-03-05T13:51:55;5.00;99.90
23156;DHT22;11746;50.876;4.246;2023-03-05T13:54:22;5.10;99.90
23156;DHT22;11746;50.876;4.246;2023-03-05T13:56:56;5.10;99.90
23156;DHT22;11746;50.876;4.246;2023-03-05T13:59:25;5.10;99.90
23156;DHT22;11746;50.876;4.246;2023-03-05T14:01:55;5.20;99.90
23156;DHT22;11746;50.876;4.246;2023-03-05T14:04:24;5.20;99.90
23156;DHT22;11746;50.876;4.246;2023-03-05T14:14:34;5.10;99.90
23156;DHT22;11746;50.876;4.246;2023-03-05T14:17:41;5.20;99.90
23156;DHT22;11746;50.876;4.246;2023-03-05T14:22:53;5.30;99.90
23156;DHT22;11746;50.876;4.246;2023-03-05T14:27:53;5.30;99.90
23156;DHT22;11746;50.876;4.246;2023-03-05T14:30:21;5.30;99.90
23156;DHT22;11746;50.876;4.246;2023-03-05T14:32:52;5.30;99.90
23156;DHT22;11746;50.876;4.246;2023-03-05T14:35:21;5.40;99.90
23156;DHT22;11746;50.876;4.246;2023-03-05T14:37:49;5.30;99.90
23156;DHT22;11746;50.876;4.246;2023-03-05T14:40:31;5.30;99.90
23156;DHT22;11746;50.876;4.246;2023-03-05T14:43:09;5.40;99.90
23156;DHT22;11746;50.876;4.246;2023-03-05T14:45:40;5.50;99.90
23156;DHT22;11746;50.876;4.246;2023-03-05T14:48:11;5.50;99.90
23156;DHT22;11746;50.876;4.246;2023-03-05T14:50:43;5.50;99.90
23156;DHT22;11746;50.876;4.246;2023-03-05T14:53:18;5.50;99.90
23156;DHT22;11746;50.876;4.246;2023-03-05T14:55:47;5.50;99.90
23156;DHT22;11746;50.876;4.246;2023-03-05T14:58:23;5.50;99.90
23156;DHT22;11746;50.876;4.246;2023-03-05T15:00:51;5.50;99.90
23156;DHT22;11746;50.876;4.246;2023-03-05T15:03:17;5.40;99.90
23156;DHT22;11746;50.876;4.246;2023-03-05T15:05:47;5.30;99.90
23156;DHT22;11746;50.876;4.246;2023-03-05T15:08:17;5.30;99.90
23156;DHT22;11746;50.876;4.246;2023-03-05T15:10:44;5.30;99.90
23156;DHT22;11746;50.876;4.246;2023-03-05T15:13:11;5.40;99.90
23156;DHT22;11746;50.876;4.246;2023-03-05T15:15:38;5.50;99.90
23156;DHT22;11746;50.876;4.246;2023-03-05T15:18:03;5.40;99.90
23156;DHT22;11746;50.876;4.246;2023-03-05T15:20:32;5.40;99.90
23156;DHT22;11746;50.876;4.246;2023-03-05T15:23:00;5.50;99.90
23156;DHT22;11746;50.876;4.246;2023-03-05T15:25:27;5.40;99.90
23156;DHT22;11746;50.876;4.246;2023-03-05T15:27:53;5.50;99.90
23156;DHT22;11746;50.876;4.246;2023-03-05T15:30:26;5.60;99.90
23156;DHT22;11746;50.876;4.246;2023-03-05T15:32:53;5.50;99.90
23156;DHT22;11746;50.876;4.246;2023-03-05T15:35:20;5.50;99.90
23156;DHT22;11746;50.876;4.246;2023-03-05T15:37:46;5.50;99.90
23156;DHT22;11746;50.876;4.246;2023-03-05T15:40:12;5.60;99.90
23156;DHT22;11746;50.876;4.246;2023-03-05T15:42:38;5.70;99.90
23156;DHT22;11746;50.876;4.246;2023-03-05T15:45:04;5.70;99.90
23156;DHT22;11746;50.876;4.246;2023-03-05T15:47:30;5.70;99.90
23156;DHT22;11746;50.876;4.246;2023-03-05T15:49:55;5.70;99.90
23156;DHT22;11746;50.876;4.246;2023-03-05T15:52:21;5.70;99.90
23156;DHT22;11746;50.876;4.246;2023-03-05T15:54:47;5.90;99.90
23156;DHT22;11746;50.876;4.246;2023-03-05T15:57:13;5.90;99.90
23156;DHT22;11746;50.876;4.246;2023-03-05T15:59:41;5.90;99.90
23156;DHT22;11746;50.876;4.246;2023-03-05T16:02:12;5.90;99.90
23156;DHT22;11746;50.876;4.246;2023-03-05T16:04:38;5.90;99.90
23156;DHT22;11746;50.876;4.246;2023-03-05T16:07:04;5.80;99.90
23156;DHT22;11746;50.876;4.246;2023-03-05T16:09:41;5.80;99.90
23156;DHT22;11746;50.876;4.246;2023-03-05T16:12:16;5.80;99.90
23156;DHT22;11746;50.876;4.246;2023-03-05T16:14:43;5.80;99.90
23156;DHT22;11746;50.876;4.246;2023-03-05T16:17:12;5.90;99.90
23156;DHT22;11746;50.876;4.246;2023-03-05T16:19:41;5.80;99.90
23156;DHT22;11746;50.876;4.246;2023-03-05T16:22:08;5.70;99.90
23156;DHT22;11746;50.876;4.246;2023-03-05T16:24:36;5.60;99.90
23156;DHT22;11746;50.876;4.246;2023-03-05T16:27:02;5.70;99.90
23156;DHT22;11746;50.876;4.246;2023-03-05T16:29:29;5.70;99.90
23156;DHT22;11746;50.876;4.246;2023-03-05T16:32:03;5.80;99.90
23156;DHT22;11746;50.876;4.246;2023-03-05T16:34:29;5.80;99.90
23156;DHT22;11746;50.876;4.246;2023-03-05T16:36:55;5.90;99.90
23156;DHT22;11746;50.876;4.246;2023-03-05T16:39:23;5.80;99.90
23156;DHT22;11746;50.876;4.246;2023-03-05T16:41:49;5.70;99.90
23156;DHT22;11746;50.876;4.246;2023-03-05T16:44:17;5.60;99.90
23156;DHT22;11746;50.876;4.246;2023-03-05T16:46:47;5.50;99.90
23156;DHT22;11746;50.876;4.246;2023-03-05T16:49:18;5.50;99.90
23156;DHT22;11746;50.876;4.246;2023-03-05T16:51:44;5.50;99.90
23156;DHT22;11746;50.876;4.246;2023-03-05T16:54:10;5.50;99.90
23156;DHT22;11746;50.876;4.246;2023-03-05T16:56:36;5.40;99.90
23156;DHT22;11746;50.876;4.246;2023-03-05T16:59:01;5.50;99.90
23156;DHT22;11746;50.876;4.246;2023-03-05T17:01:27;5.50;99.90
23156;DHT22;11746;50.876;4.246;2023-03-05T17:03:56;5.40;99.90
23156;DHT22;11746;50.876;4.246;2023-03-05T17:06:29;5.40;99.90
23156;DHT22;11746;50.876;4.246;2023-03-05T17:08:55;5.30;99.90
23156;DHT22;11746;50.876;4.246;2023-03-05T17:11:20;5.30;99.90
23156;DHT22;11746;50.876;4.246;2023-03-05T17:13:46;5.40;99.90
23156;DHT22;11746;50.876;4.246;2023-03-05T17:16:17;5.40;99.90